createdAt,value
2022-11-19T19:34:32.343Z,62362.88
2022-11-19T19:36:59.088Z,62373.84
2022-11-19T19:39:26.349Z,62379.00
2022-11-19T19:41:53.363Z,62373.84
2022-11-19T19:44:19.997Z,62342.81
2022-11-19T19:46:49.743Z,62388.22
2022-11-19T19:49:16.801Z,62368.16
2022-11-19T19:51:43.551Z,62371.94
2022-11-19T19:54:10.177Z,62387.69
2022-11-19T19:56:37.267Z,62351.09
2022-11-19T19:59:04.082Z,62392.56
2022-11-19T20:01:32.891Z,62369.25
2022-11-19T20:04:02.007Z,62378.44
2022-11-19T20:06:29.585Z,62369.38
2022-11-19T20:08:56.361Z,62371.94
2022-11-19T20:11:27.669Z,62376.84
2022-11-19T20:14:02.692Z,62379.53
2022-11-19T20:16:34.274Z,62389.84
2022-11-19T20:19:01.789Z,62385.53
2022-11-19T20:21:34.212Z,62375.34
2022-11-19T20:24:03.937Z,62378.47
2022-11-19T20:26:32.819Z,62369.53
2022-11-19T20:29:05.999Z,62387.13
2022-11-19T20:31:33.774Z,62382.78
2022-11-19T20:34:02.721Z,62394.72
2022-11-19T20:36:31.149Z,62396.88
2022-11-19T20:38:57.853Z,62381.19
2022-11-19T20:41:44.591Z,62384.84
2022-11-19T20:44:23.167Z,62375.34
2022-11-19T20:46:58.285Z,62360.59
2022-11-19T20:49:27.922Z,62362.88
2022-11-19T20:51:55.934Z,62371.44
2022-11-19T20:54:23.759Z,62403.94
2022-11-19T20:56:52.069Z,62397.97
2022-11-19T20:59:19.594Z,62374.53
2022-11-19T21:01:51.453Z,62370.88
2022-11-19T21:04:19.831Z,62368.44
2022-11-19T21:06:47.821Z,62365.06
2022-11-19T21:09:16.185Z,62366.28
2022-11-19T21:11:43.947Z,62370.88
2022-11-19T21:14:11.608Z,62340.53
2022-11-19T21:16:38.790Z,62370.34
2022-11-19T21:19:05.660Z,62381.72
2022-11-19T21:21:32.388Z,62345.53
2022-11-19T21:23:59.212Z,62364.63
2022-11-19T21:26:27.834Z,62377.38
2022-11-19T21:28:57.410Z,62349.88
2022-11-19T21:31:40.782Z,62342.81
2022-11-19T21:34:09.939Z,62342.81
2022-11-19T21:36:37.424Z,62367.75
2022-11-19T21:39:05.322Z,62326.97
2022-11-19T21:41:32.753Z,62369.25
2022-11-19T21:43:59.443Z,62386.03
2022-11-19T21:46:26.234Z,62385.53
2022-11-19T21:48:53.993Z,62382.78
2022-11-19T21:51:24.528Z,62367.75
2022-11-19T21:53:58.312Z,62360.03
2022-11-19T21:56:26.914Z,62357.84
2022-11-19T21:58:53.595Z,62363.28
2022-11-19T22:01:20.502Z,62365.56
2022-11-19T22:03:47.689Z,62364.91
2022-11-19T22:06:14.401Z,62362.19
2022-11-19T22:08:42.373Z,62380.63
2022-11-19T22:11:28.931Z,62347.56
2022-11-19T22:14:07.011Z,62372.66
2022-11-19T22:16:36.705Z,62360.03
2022-11-19T22:19:05.627Z,62361.38
2022-11-19T22:21:32.702Z,62371.56
2022-11-19T22:23:59.547Z,62384.00
2022-11-19T22:26:26.667Z,62384.00
2022-11-19T22:28:53.810Z,62380.38
2022-11-19T22:31:20.551Z,62384.00
2022-11-19T22:33:51.832Z,62360.59
2022-11-19T22:36:20.120Z,62390.94
2022-11-19T22:38:46.801Z,62388.34
2022-11-19T22:41:16.015Z,62374.69
2022-11-19T22:43:43.404Z,62371.56
2022-11-19T22:46:13.004Z,62332.00
2022-11-19T22:48:40.593Z,62352.19
2022-11-19T22:51:11.128Z,62374.13
2022-11-19T22:53:38.336Z,62350.81
2022-11-19T22:56:07.495Z,62365.56
2022-11-19T22:58:36.333Z,62362.75
2022-11-19T23:01:03.875Z,62338.09
2022-11-19T23:03:30.817Z,62338.09
2022-11-19T23:05:59.360Z,60821.84
2022-11-19T23:08:26.283Z,60821.84
2022-11-19T23:11:01.624Z,60821.84
2022-11-19T23:13:33.603Z,60821.84
2022-11-19T23:16:12.047Z,60821.84
2022-11-19T23:18:46.606Z,60821.84
2022-11-19T23:21:16.229Z,60821.84
2022-11-19T23:23:43.055Z,60821.84
2022-11-19T23:26:11.870Z,60821.84
2022-11-19T23:28:39.111Z,60821.84
2022-11-19T23:31:07.697Z,60821.84
2022-11-19T23:33:34.422Z,60821.84
2022-11-19T23:36:06.230Z,60821.84
2022-11-19T23:38:34.647Z,60821.84
2022-11-19T23:41:02.099Z,60821.84
2022-11-19T23:43:29.245Z,60821.84
2022-11-19T23:46:02.978Z,60821.84
2022-11-19T23:48:30.814Z,60821.84
2022-11-19T23:51:06.156Z,60821.84
2022-11-19T23:53:33.409Z,60821.84
2022-11-19T23:56:00.668Z,60821.84
2022-11-19T23:58:27.729Z,60821.84
